Terminal Aerodrome Forecast
Issued by NWS

Home | Current Version | Previous Version | Text Only | Print | Product List | Glossary On
Versions: 1 2 3 4 5 6 7 8 9 10 11 12 13 14 15 16 17 18 19 20 21 22 23 24 25 26 27 28
000
FTUS45 KGJT 261142
TAFMTJ
TAF
KMTJ 261142Z 2612/2712 VRB03KT P6SM BKN035
     FM261400 VRB03KT P6SM SCT035 BKN080
     FM261800 34004KT P6SM SCT080
     FM262000 28008KT P6SM OVC070
     FM270100 13007KT P6SM VCSH OVC060
     FM270500 17005KT P6SM -SHRA OVC050=

USA.gov is the U.S. government's official web portal to all federal, state and local government web resources and services.